»·PEaware :: NASA844 KDTO-KLAX

NASA844 :: KDTO-KLAX

FLIGHT INFORMATION

Flight Status: Arrived
Operator: Unknown
More flights by this operator :: More flights under this callsign
Pilot: Anonymous 3903 (3903)
Aircraft: LOCKHEED SR-71 BLACKBIRD
(SR71)
More flights by this aircraft type
Origin: KDTO Denton Mun
United States
Destination: KLAX Los Angeles Intl
United States
More flights between these airports :: More routes between these airports
Route: RIIVR RIIVR2
File this flight plan on PilotEdge
Remarks: Unable speeds on STAR or under 10000ft
Altitude:
(Current/Filed)
75,000ft
Speed:
(Current/Filed)
1860kts
Departed: 03-Mar-15 10:18 PM
Arrived: 03-Mar-15 11:34 PM
Distance/Time
Traveled:
1059nm/1:16
Distance/Time
To Go:
Arrived

Flight Plot

Page will automatically refresh every two minutes.


Map Options




Map Legend


Flown Route
Filed Route
Departure Airport
Arrival Airport
Navaid (VOR, NDB)
Fix

Horizontal Profiles

Position Reports

Time Latitude Longitude Heading Altitude Ground
Speed
03-Mar-15 21:41 33.202859 -97.194975 248 649ft 0kts
03-Mar-15 21:42 33.202859 -97.194975 248 649ft 0kts
03-Mar-15 21:43 33.202859 -97.194975 248 649ft 0kts
03-Mar-15 21:44 33.202859 -97.194975 248 649ft 0kts
03-Mar-15 21:45 33.202859 -97.194975 248 649ft 0kts
03-Mar-15 21:46 33.202859 -97.194975 248 649ft 0kts
03-Mar-15 21:47 33.202859 -97.194975 248 649ft 0kts
03-Mar-15 21:48 33.202859 -97.194975 248 649ft 0kts
03-Mar-15 21:49 33.202859 -97.194975 248 649ft 0kts
03-Mar-15 21:50 33.202859 -97.194975 248 649ft 0kts
03-Mar-15 21:51 33.202859 -97.194975 248 649ft 0kts
03-Mar-15 21:52 33.202859 -97.194976 248 649ft 0kts
03-Mar-15 21:53 33.202859 -97.194978 249 649ft 0kts
03-Mar-15 21:55 33.202858 -97.194975 248 649ft 0kts
03-Mar-15 21:56 33.202858 -97.194975 248 649ft 0kts
03-Mar-15 21:57 33.202858 -97.194975 248 649ft 0kts
03-Mar-15 21:58 33.202858 -97.194975 248 649ft 0kts
03-Mar-15 21:59 33.202858 -97.194975 249 649ft 0kts
03-Mar-15 22:00 33.202858 -97.194977 249 649ft 0kts
03-Mar-15 22:01 33.202857 -97.194978 249 649ft 0kts
03-Mar-15 22:02 33.202857 -97.194979 249 649ft 0kts
03-Mar-15 22:03 33.202857 -97.194981 249 649ft 0kts
03-Mar-15 22:04 33.201460 -97.195578 188 649ft 10kts
03-Mar-15 22:05 33.198998 -97.195634 192 649ft 11kts
03-Mar-15 22:06 33.195838 -97.196420 193 649ft 13kts
03-Mar-15 22:07 33.192861 -97.196776 212 649ft 6kts
03-Mar-15 22:08 33.192643 -97.197153 258 649ft 0kts
03-Mar-15 22:09 33.192643 -97.197154 258 649ft 0kts
03-Mar-15 22:10 33.192642 -97.197155 258 649ft 0kts
03-Mar-15 22:11 33.193183 -97.198124 3 649ft 0kts
03-Mar-15 22:12 33.231614 -97.197182 2 4428ft 339kts
03-Mar-15 22:13 33.339126 -97.229946 315 20750ft 483kts
03-Mar-15 22:14 33.388682 -97.374932 275 28555ft 443kts
03-Mar-15 22:15 33.418296 -97.511367 274 29983ft 467kts
03-Mar-15 22:16 33.446771 -97.675087 271 29947ft 509kts
03-Mar-15 22:17 33.465844 -97.846835 270 29956ft 543kts
03-Mar-15 22:18 33.485741 -98.052950 270 29966ft 751kts
03-Mar-15 22:19 33.512468 -98.342506 271 36116ft 870kts
03-Mar-15 22:20 33.541255 -98.609221 273 45919ft 761kts
03-Mar-15 22:21 33.569812 -98.885057 274 48318ft 965kts
03-Mar-15 22:22 33.601549 -99.207398 274 51150ft 973kts
03-Mar-15 22:23 33.633665 -99.538222 275 54153ft 1026kts
03-Mar-15 22:24 33.666442 -99.885591 275 57145ft 1069kts
03-Mar-15 22:25 33.699326 -100.244930 275 60142ft 1090kts
03-Mar-15 22:26 33.731540 -100.609648 275 63136ft 1101kts
03-Mar-15 22:27 33.762756 -100.977083 274 66541ft 1106kts
03-Mar-15 22:28 33.793230 -101.351066 274 70038ft 1157kts
03-Mar-15 22:29 33.823999 -101.745201 274 73223ft 1221kts
03-Mar-15 22:30 33.855688 -102.168934 274 74806ft 1307kts
03-Mar-15 22:31 33.888116 -102.622422 274 75014ft 1428kts
03-Mar-15 22:32 33.922027 -103.120762 274 76453ft 1540kts
03-Mar-15 22:33 33.955917 -103.646343 273 77952ft 1607kts
03-Mar-15 22:34 33.988917 -104.191339 273 79390ft 1647kts
03-Mar-15 22:35 34.020185 -104.747165 273 79920ft 1674kts
03-Mar-15 22:36 34.049337 -105.311904 272 79943ft 1691kts
03-Mar-15 22:37 34.075905 -105.880076 272 79957ft 1722kts
03-Mar-15 22:38 34.100410 -106.466247 272 79956ft 1768kts
03-Mar-15 22:39 34.122473 -107.064695 272 79948ft 1795kts
03-Mar-15 22:40 34.141760 -107.671060 271 79959ft 1813kts
03-Mar-15 22:41 34.158051 -108.282560 271 79973ft 1826kts
03-Mar-15 22:42 34.171161 -108.895567 271 79980ft 1835kts
03-Mar-15 22:43 34.181088 -109.513926 270 79988ft 1841kts
03-Mar-15 22:44 34.187698 -110.133741 270 80014ft 1845kts
03-Mar-15 22:45 34.190956 -110.754903 270 80005ft 1849kts
03-Mar-15 22:46 34.190848 -111.377608 269 80014ft 1851kts
03-Mar-15 22:47 34.187377 -111.998773 269 79993ft 1853kts
03-Mar-15 22:48 34.180513 -112.622323 268 79991ft 1855kts
03-Mar-15 22:49 34.170303 -113.244008 268 79998ft 1856kts
03-Mar-15 22:50 34.156672 -113.868055 268 79998ft 1857kts
03-Mar-15 22:51 34.139624 -114.492326 267 80005ft 1858kts
03-Mar-15 22:52 34.119150 -115.116503 267 80015ft 1855kts
03-Mar-15 22:53 34.095260 -115.738703 267 80042ft 1852kts
03-Mar-15 22:54 34.067957 -116.357719 266 80060ft 1849kts
03-Mar-15 22:55 34.037228 -116.971207 266 79651ft 1811kts
03-Mar-15 22:56 34.004279 -117.572369 266 78920ft 1774kts
03-Mar-15 22:57 33.972950 -118.149662 266 76332ft 1647kts
03-Mar-15 22:58 33.849077 -118.640878 228 71871ft 1462kts
03-Mar-15 22:59 33.529843 -118.897518 197 66894ft 1364kts
03-Mar-15 23:00 33.165546 -118.931054 157 61918ft 1303kts
03-Mar-15 23:01 32.898669 -118.676313 124 56923ft 1191kts
03-Mar-15 23:02 32.753152 -118.340313 110 51925ft 1100kts
03-Mar-15 23:03 32.671333 -118.006547 98 46946ft 1009kts
03-Mar-15 23:04 32.651603 -117.692891 90 41951ft 894kts
03-Mar-15 23:05 32.681467 -117.420406 76 36962ft 768kts
03-Mar-15 23:06 32.761515 -117.224415 48 32000ft 524kts
03-Mar-15 23:07 32.853703 -117.102741 37 27852ft 509kts
03-Mar-15 23:08 32.984100 -117.035891 13 26113ft 520kts
03-Mar-15 23:09 33.127424 -116.998083 10 24160ft 531kts
03-Mar-15 23:10 33.265229 -116.975992 4 21874ft 472kts
03-Mar-15 23:11 33.374918 -116.967276 3 19789ft 475kts
03-Mar-15 23:12 33.508158 -116.965100 355 17578ft 482kts
03-Mar-15 23:13 33.641907 -116.984325 352 15577ft 482kts
03-Mar-15 23:14 33.773477 -117.006848 352 13574ft 465kts
03-Mar-15 23:15 33.892985 -117.055285 322 11581ft 464kts
03-Mar-15 23:16 33.983246 -117.168288 308 10059ft 471kts
03-Mar-15 23:17 34.033167 -117.313446 286 10014ft 449kts
03-Mar-15 23:18 34.035136 -117.456706 261 9178ft 418kts
03-Mar-15 23:19 34.019171 -117.593299 265 8631ft 396kts
03-Mar-15 23:20 34.007500 -117.716360 265 6929ft 336kts
03-Mar-15 23:21 33.996799 -117.824527 265 6251ft 319kts
03-Mar-15 23:22 33.983967 -117.930607 259 5836ft 320kts
03-Mar-15 23:23 33.972073 -118.033376 265 4555ft 296kts
03-Mar-15 23:24 33.963923 -118.129596 263 4040ft 281kts
03-Mar-15 23:25 33.954184 -118.227302 266 2565ft 267kts
03-Mar-15 23:26 33.944225 -118.317730 262 1241ft 256kts
03-Mar-15 23:27 33.936395 -118.394252 262 133ft 117kts
03-Mar-15 23:28 33.933505 -118.403044 175 133ft 14kts
03-Mar-15 23:29 33.933244 -118.402990 166 133ft 0kts
03-Mar-15 23:30 33.933244 -118.402990 166 133ft 0kts
03-Mar-15 23:31 33.933244 -118.402990 166 133ft 0kts
03-Mar-15 23:32 33.933244 -118.402990 166 133ft 0kts
03-Mar-15 23:33 33.933244 -118.402990 166 133ft 0kts

Navigation Log

Ident Type
Flight plan parsing failed, navigation log unavailable